createdAt,value
2018-06-07T09:51:33.913Z,31.04
2018-06-07T09:52:42.772Z,30.85
2018-06-07T09:53:51.636Z,30.65
2018-06-07T09:55:00.459Z,30.27
2018-06-07T09:56:09.285Z,30.36
2018-06-07T09:57:18.185Z,30.27
2018-06-07T09:58:27.402Z,30.46
2018-06-07T09:59:36.135Z,30.85
2018-06-07T10:00:45.487Z,30.94
2018-06-07T10:01:54.324Z,31.33
2018-06-07T10:03:03.554Z,31.13
2018-06-07T10:04:12.420Z,30.96
2018-06-07T10:05:21.404Z,30.76
2018-06-07T10:06:30.330Z,30.86
2018-06-07T10:07:39.242Z,30.96
2018-06-07T10:08:48.330Z,30.76
2018-06-07T10:09:57.166Z,30.66
2018-06-07T10:11:05.988Z,31.05
2018-06-07T10:12:14.876Z,31.15
2018-06-07T10:13:23.707Z,30.76
2018-06-07T10:14:32.608Z,31.15
2018-06-07T10:15:42.517Z,30.76
2018-06-07T10:16:51.664Z,30.86
2018-06-07T10:18:00.491Z,30.66
2018-06-07T10:19:09.322Z,31.07
2018-06-07T10:20:18.140Z,30.29
2018-06-07T10:21:26.975Z,30.1
2018-06-07T10:22:35.825Z,30.29
2018-06-07T10:23:44.987Z,30.29
2018-06-07T10:24:53.949Z,30.1
2018-06-07T10:26:02.852Z,30
2018-06-07T10:27:12.021Z,30.58
2018-06-07T10:28:20.850Z,30.68
2018-06-07T10:29:29.681Z,30.58
2018-06-07T10:30:38.585Z,30.78
2018-06-07T10:31:47.447Z,30.49
2018-06-07T10:32:56.386Z,30.58
2018-06-07T10:34:05.287Z,30.88
2018-06-07T10:35:14.135Z,30.69
2018-06-07T10:36:23.010Z,30.6
2018-06-07T10:37:31.894Z,30.51
2018-06-07T10:38:40.721Z,30.78
2018-06-07T10:39:49.849Z,30.79
2018-06-07T10:40:58.677Z,30.99
2018-06-07T10:42:07.643Z,30.31
2018-06-07T10:43:16.505Z,30.11
2018-06-07T10:44:25.351Z,30.31
2018-06-07T10:45:34.215Z,30.21
2018-06-07T10:46:43.369Z,30.41
2018-06-07T10:47:52.242Z,30.41
2018-06-07T10:49:01.091Z,30.31
2018-06-07T10:50:09.975Z,30.31
2018-06-07T10:51:19.121Z,29.84
2018-06-07T10:52:27.956Z,29.84
2018-06-07T10:53:36.789Z,29.94
2018-06-07T10:54:45.608Z,29.84
2018-06-07T10:55:54.448Z,29.94
2018-06-07T10:57:03.271Z,30.32
2018-06-07T10:58:12.368Z,30.23
2018-06-07T10:59:21.229Z,30.32
2018-06-07T11:00:30.097Z,30.32
2018-06-07T11:01:39.196Z,30.42
2018-06-07T11:02:48.026Z,29.94
2018-06-07T11:03:56.874Z,29.94
2018-06-07T11:05:05.709Z,29.84
2018-06-07T11:06:14.806Z,29.94
2018-06-07T11:07:23.630Z,30.32
2018-06-07T11:08:32.469Z,30.23
2018-06-07T11:09:41.291Z,30.13
2018-06-07T11:10:50.128Z,30.04
2018-06-07T11:11:59.228Z,30.13
2018-06-07T11:13:08.058Z,30.52
2018-06-07T11:14:16.888Z,30.34
2018-06-07T11:15:25.723Z,30.34
2018-06-07T11:16:34.554Z,30.34
2018-06-07T11:17:43.396Z,30.92
2018-06-07T11:18:52.221Z,30.92
2018-06-07T11:20:01.058Z,30.34
2018-06-07T11:21:09.880Z,29.37
2018-06-07T11:22:18.706Z,29.08
2018-06-07T11:23:27.541Z,29.66
2018-06-07T11:24:36.376Z,29.57
2018-06-07T11:25:45.485Z,30.05
2018-06-07T11:26:54.579Z,30.34
2018-06-07T11:28:03.979Z,29.95
2018-06-07T11:29:12.805Z,29.57
2018-06-07T11:30:21.630Z,29.76
2018-06-07T11:31:30.532Z,30.05
2018-06-07T11:32:39.588Z,29.95
2018-06-07T11:33:48.421Z,29.95
2018-06-07T11:34:57.526Z,29.95
2018-06-07T11:36:06.653Z,30.15
2018-06-07T11:37:15.483Z,30.24
2018-06-07T11:38:24.300Z,30.05
2018-06-07T11:39:33.136Z,30.24
2018-06-07T11:40:41.966Z,30.15
2018-06-07T11:41:50.827Z,30.34
2018-06-07T11:42:59.651Z,30.63
2018-06-07T11:44:08.477Z,30.74
2018-06-07T11:45:17.588Z,30.24
2018-06-07T11:46:26.412Z,30.07
2018-06-07T11:47:35.239Z,29.97
2018-06-07T11:48:44.122Z,29.77
2018-06-07T11:49:52.913Z,29.47
2018-06-07T11:51:01.737Z,29.48
2018-06-07T11:52:10.588Z,29.77
2018-06-07T11:53:19.427Z,29.58
2018-06-07T11:54:28.530Z,29.48
2018-06-07T11:55:37.365Z,29.28
2018-06-07T11:56:46.189Z,28.8
2018-06-07T11:57:55.017Z,29.28
2018-06-07T11:59:03.857Z,29
2018-06-07T12:00:12.688Z,28.9
2018-06-07T12:01:21.522Z,29.38
2018-06-07T12:02:30.344Z,29.28
2018-06-07T12:03:39.447Z,29.1
2018-06-07T12:04:48.268Z,29.19
2018-06-07T12:05:57.160Z,29.38
2018-06-07T12:07:06.255Z,29.19
2018-06-07T12:08:15.127Z,29.28
2018-06-07T12:09:23.949Z,28.9
2018-06-07T12:10:32.785Z,29
2018-06-07T12:11:41.615Z,28.7
2018-06-07T12:12:50.474Z,28.7
2018-06-07T12:13:59.376Z,29.19
2018-06-07T12:15:08.217Z,29.19
2018-06-07T12:16:17.047Z,28.8
2018-06-07T12:17:26.143Z,28.22
2018-06-07T12:18:34.979Z,28.03
2018-06-07T12:19:43.799Z,28.8
2018-06-07T12:20:52.672Z,28.03
2018-06-07T12:22:01.509Z,28.03
2018-06-07T12:23:10.336Z,27.93
2018-06-07T12:24:19.161Z,28.03
2018-06-07T12:25:28.007Z,28.03
2018-06-07T12:26:37.113Z,28.61
2018-06-07T12:27:45.948Z,28.03
2018-06-07T12:28:54.770Z,27.45
2018-06-07T12:30:03.872Z,27.25
2018-06-07T12:31:12.709Z,26.28
2018-06-07T12:32:21.536Z,26.76
2018-06-07T12:35:26.833Z,27.64
2018-06-07T12:36:35.671Z,27.66
2018-06-07T12:37:44.500Z,27.75
2018-06-07T12:38:53.318Z,28.04
2018-06-07T12:40:02.671Z,27.66
2018-06-07T12:41:11.887Z,26.76
2018-06-07T12:42:20.710Z,27.06
2018-06-07T12:43:29.778Z,27.07
2018-06-07T12:44:38.651Z,27.36
2018-06-07T12:45:47.765Z,26.96
2018-06-07T12:46:56.746Z,27.25
2018-06-07T12:48:05.421Z,27.25
2018-06-07T12:49:14.264Z,27.56
2018-06-07T12:50:23.091Z,27.83
2018-06-07T12:51:31.936Z,27.66
2018-06-07T12:52:40.762Z,27.64
2018-06-07T12:53:49.696Z,27.46
2018-06-07T12:54:58.541Z,27.26
2018-06-07T12:56:07.395Z,26.59
2018-06-07T12:57:16.320Z,26.2
2018-06-07T12:58:25.135Z,26.49
2018-06-07T12:59:33.959Z,26.59
2018-06-07T13:00:42.835Z,26.49
2018-06-07T13:01:51.656Z,26.39
2018-06-07T13:03:00.524Z,26.49
2018-06-07T13:04:09.378Z,25.71
2018-06-07T13:05:18.472Z,25.71
2018-06-07T13:06:27.303Z,25.62
2018-06-07T13:07:36.138Z,25.13
2018-06-07T13:08:44.993Z,24.66
2018-06-07T13:09:53.837Z,23.96
2018-06-07T13:11:02.696Z,24.07
2018-06-07T13:12:11.540Z,24.37
2018-06-07T13:13:20.407Z,23.97
2018-06-07T13:14:29.244Z,23.79
2018-06-07T13:15:38.070Z,24.37
2018-06-07T13:16:46.902Z,25.14
2018-06-07T13:17:55.746Z,25.82
2018-06-07T13:19:04.577Z,25.53
2018-06-07T13:20:13.400Z,25.04
2018-06-07T13:21:22.224Z,25.04
2018-06-07T13:22:31.063Z,24.85
2018-06-07T13:23:39.892Z,24.95
2018-06-07T13:24:48.720Z,24.95
2018-06-07T13:25:57.547Z,24.85
2018-06-07T13:27:06.382Z,24.56
2018-06-07T13:28:15.206Z,24.85
2018-06-07T13:29:24.030Z,25.14
2018-06-07T13:30:32.852Z,25.04
2018-06-07T13:31:41.690Z,25.53
2018-06-07T13:32:50.785Z,24.76
2018-06-07T13:33:59.660Z,24.95
2018-06-07T13:35:08.736Z,24.95
2018-06-07T13:36:17.566Z,24.85
2018-06-07T13:37:26.386Z,24.66
2018-06-07T13:38:35.221Z,24.95
2018-06-07T13:39:44.059Z,25.14
2018-06-07T13:40:52.880Z,24.95
2018-06-07T13:42:01.743Z,25.14
2018-06-07T13:43:10.827Z,25.04
2018-06-07T13:44:19.662Z,25.04
2018-06-07T13:45:28.485Z,25.53
2018-06-07T13:46:37.569Z,25.34
2018-06-07T13:47:46.425Z,24.95
2018-06-07T13:48:55.251Z,24.85
2018-06-07T13:50:04.077Z,24.95
2018-06-07T13:51:12.915Z,24.27
2018-06-07T13:52:21.753Z,24.56
2018-06-07T13:53:30.858Z,25.04
2018-06-07T13:54:39.692Z,24.95
2018-06-07T13:55:48.810Z,24.85
2018-06-07T13:56:57.639Z,24.85
2018-06-07T13:58:06.823Z,24.37
2018-06-07T13:59:15.676Z,23.97
2018-06-07T14:00:24.768Z,24.85
2018-06-07T14:01:33.674Z,24.46
2018-06-07T14:02:42.531Z,24.37
2018-06-07T14:03:51.429Z,23.97
2018-06-07T14:05:00.263Z,24.95
2018-06-07T14:06:09.143Z,23.77
2018-06-07T14:07:17.973Z,23.79
2018-06-07T14:08:27.338Z,24.17
2018-06-07T14:09:36.277Z,22.23
2018-06-07T14:10:45.136Z,23
2018-06-07T14:11:53.990Z,22.81
2018-06-07T14:13:03.105Z,23
2018-06-07T14:14:11.934Z,21.55
2018-06-07T14:15:20.771Z,21.84
2018-06-07T14:16:29.597Z,21.45
2018-06-07T14:17:38.579Z,21.94
2018-06-07T14:18:47.298Z,21.84
2018-06-07T14:19:56.189Z,22.33
2018-06-07T14:21:05.004Z,20.97
2018-06-07T14:22:14.283Z,21.16
2018-06-07T14:23:23.126Z,21.75
2018-06-07T14:24:31.951Z,21.37
2018-06-07T14:25:40.848Z,20.88
2018-06-07T14:26:49.675Z,21.37
2018-06-07T14:27:58.832Z,21.47
2018-06-07T14:29:07.634Z,22.05
2018-06-07T14:30:16.482Z,21.85
2018-06-07T14:31:25.304Z,22.24
2018-06-07T14:32:34.137Z,22.34
2018-06-07T14:33:42.961Z,22.53
2018-06-07T14:34:51.795Z,22.82
2018-06-07T14:36:00.626Z,23
2018-06-07T14:37:09.458Z,22.91
2018-06-07T14:38:18.285Z,23
2018-06-07T14:39:27.129Z,22.91
2018-06-07T14:40:35.977Z,22.72
2018-06-07T14:41:45.088Z,22.81
2018-06-07T14:42:53.910Z,23
2018-06-07T14:44:02.752Z,23
2018-06-07T14:45:11.584Z,22.91
2018-06-07T14:46:20.406Z,23.39
2018-06-07T14:47:29.236Z,22.72
2018-06-07T14:48:38.056Z,23.3
2018-06-07T14:49:46.890Z,23
2018-06-07T14:50:55.718Z,23.3
2018-06-07T14:52:04.812Z,22.62
2018-06-07T14:53:13.636Z,23
2018-06-07T14:54:22.733Z,23.49
2018-06-07T14:55:31.833Z,23
2018-06-07T14:56:40.665Z,23
2018-06-07T14:57:49.745Z,22.62
2018-06-07T14:58:58.578Z,22.81
2018-06-07T15:00:07.411Z,23.49
2018-06-07T15:01:16.235Z,22.62
2018-06-07T15:02:25.057Z,23.1
2018-06-07T15:03:33.895Z,23.2
2018-06-07T15:04:42.723Z,23.2
2018-06-07T15:05:51.544Z,23.69
2018-06-07T15:07:00.381Z,24.07
2018-06-07T15:08:09.199Z,23.69
2018-06-07T15:09:18.028Z,23.69
2018-06-07T15:10:26.853Z,23.59
2018-06-07T15:11:35.690Z,23.97
2018-06-07T15:12:44.789Z,24.27
2018-06-07T15:13:53.610Z,23.59
2018-06-07T15:15:02.432Z,23.59
2018-06-07T15:16:11.271Z,23.49
2018-06-07T15:17:20.420Z,23
2018-06-07T15:18:29.217Z,23.39
2018-06-07T15:19:38.007Z,23.1
2018-06-07T15:20:46.837Z,22.91
2018-06-07T15:21:55.668Z,22.91
2018-06-07T15:23:04.490Z,23.49
2018-06-07T15:24:13.594Z,23.39
2018-06-07T15:25:22.419Z,22.91
2018-06-07T15:26:31.249Z,23.49
2018-06-07T15:27:40.347Z,23.49
2018-06-07T15:28:49.170Z,23.69
2018-06-07T15:29:57.991Z,23.79
2018-06-07T15:31:07.089Z,23.79
2018-06-07T15:32:15.912Z,23.88
2018-06-07T15:33:25.122Z,24.07
2018-06-07T15:34:34.295Z,23.69
2018-06-07T15:35:43.129Z,24.08
2018-06-07T15:36:51.954Z,23.79
2018-06-07T15:38:00.781Z,23.41
2018-06-07T15:39:09.604Z,22.92
2018-06-07T15:40:18.442Z,23.59
2018-06-07T15:41:27.272Z,23.99
2018-06-07T15:42:36.104Z,23.99
2018-06-07T15:43:44.931Z,23.99
2018-06-07T15:44:54.013Z,23.79
2018-06-07T15:46:02.835Z,23.7
2018-06-07T15:47:11.664Z,24.08
2018-06-07T15:48:20.483Z,23.99
2018-06-07T15:49:29.320Z,23.89
2018-06-07T15:50:38.142Z,23.89
2018-06-07T15:51:46.964Z,23.89
2018-06-07T15:52:55.792Z,23.7
2018-06-07T15:54:04.920Z,23.7
2018-06-07T15:55:13.716Z,23.6
2018-06-07T15:56:22.545Z,23.6
2018-06-07T15:57:31.363Z,23.7
2018-06-07T15:58:40.191Z,23.79
2018-06-07T15:59:49.026Z,23.99
2018-06-07T16:00:57.854Z,23.89
2018-06-07T16:02:06.687Z,24.38
2018-06-07T16:03:15.512Z,23.7
2018-06-07T16:04:24.331Z,23.79
2018-06-07T16:05:33.167Z,23.6
2018-06-07T16:06:41.991Z,23.99
2018-06-07T16:07:50.815Z,23.99
2018-06-07T16:08:59.639Z,23.99
2018-06-07T16:10:08.458Z,23.79
2018-06-07T16:11:17.293Z,23.6
2018-06-07T16:12:26.120Z,23.6
2018-06-07T16:13:35.213Z,23.99
2018-06-07T16:14:44.035Z,24.08
2018-06-07T16:15:52.862Z,23.79
2018-06-07T16:17:01.698Z,23.6
2018-06-07T16:18:10.785Z,24.08
2018-06-07T16:19:19.607Z,24.18
2018-06-07T16:20:28.436Z,23.99
2018-06-07T16:21:37.267Z,24.28
2018-06-07T16:22:46.093Z,23.7
2018-06-07T16:23:54.918Z,23.7
2018-06-07T16:25:04.009Z,23.79
2018-06-07T16:26:12.845Z,23.79
2018-06-07T16:27:21.672Z,23.7
2018-06-07T16:28:30.497Z,24.08
2018-06-07T16:29:39.326Z,23.99
2018-06-07T16:30:48.161Z,24.08
2018-06-07T16:31:56.980Z,24.08
2018-06-07T16:33:05.811Z,23.99
2018-06-07T16:34:14.644Z,24.28
2018-06-07T16:35:23.733Z,24.08
2018-06-07T16:36:32.566Z,23.89
2018-06-07T16:37:41.399Z,23.89
2018-06-07T16:38:50.234Z,23.99
2018-06-07T16:39:59.064Z,24.08
2018-06-07T16:41:08.152Z,23.7
2018-06-07T16:42:16.980Z,24.08
2018-06-07T16:43:25.809Z,23.89
2018-06-07T16:44:34.631Z,23.89
2018-06-07T16:45:43.460Z,23.97
2018-06-07T16:46:52.275Z,24.18
2018-06-07T16:48:01.116Z,23.88
2018-06-07T16:49:09.949Z,24.37
2018-06-07T16:50:18.778Z,24.56
2018-06-07T16:51:27.878Z,24.56
2018-06-07T16:52:36.711Z,23.88
2018-06-07T16:53:45.541Z,24.27
2018-06-07T16:54:54.363Z,23.88
2018-06-07T16:56:03.199Z,23.97
2018-06-07T16:57:12.025Z,23.88
2018-06-07T16:58:20.856Z,24.17
2018-06-07T16:59:29.682Z,23.88
2018-06-07T17:00:38.517Z,23.97
2018-06-07T17:01:47.343Z,23.97
2018-06-07T17:02:56.178Z,23.79
2018-06-07T17:04:05.000Z,23.88
2018-06-07T17:05:13.827Z,24.17
2018-06-07T17:06:22.641Z,24.56
2018-06-07T17:07:31.479Z,24.95
2018-06-07T17:08:40.303Z,25.04
2018-06-07T17:09:49.135Z,25.14
2018-06-07T17:10:57.962Z,25.04
2018-06-07T17:12:06.791Z,25.04
2018-06-07T17:13:15.622Z,24.37
2018-06-07T17:14:24.456Z,24.46
2018-06-07T17:15:33.286Z,24.56
2018-06-07T17:16:42.109Z,24.66
2018-06-07T17:17:51.202Z,25.04
2018-06-07T17:19:00.036Z,25.04
2018-06-07T17:20:08.876Z,25.24
2018-06-07T17:21:17.695Z,25.04
2018-06-07T17:22:26.793Z,25.03
2018-06-07T17:23:35.889Z,25.04
2018-06-07T17:24:44.727Z,24.93
2018-06-07T17:25:53.550Z,24.95
2018-06-07T17:27:02.375Z,24.93
2018-06-07T17:28:11.201Z,25.03
2018-06-07T17:29:20.046Z,25.32
2018-06-07T17:30:28.863Z,25.23
2018-06-07T17:31:37.954Z,25.23
2018-06-07T17:32:46.783Z,24.84
2018-06-07T17:33:55.633Z,24.74
2018-06-07T17:35:04.437Z,25.03
2018-06-07T17:36:13.483Z,24.74
2018-06-07T17:37:22.415Z,25.13
2018-06-07T17:38:31.239Z,25.03
2018-06-07T17:39:40.069Z,25.03
2018-06-07T17:40:49.155Z,24.93
2018-06-07T17:41:58.023Z,25.13
2018-06-07T17:43:06.815Z,25.32
2018-06-07T17:44:15.696Z,25.62
2018-06-07T17:45:24.483Z,25.42
2018-06-07T17:46:33.317Z,25.71
2018-06-07T17:47:42.146Z,25.71
2018-06-07T17:48:50.979Z,26.2
2018-06-07T17:49:59.804Z,26.38
2018-06-07T17:51:08.638Z,26.48
2018-06-07T17:52:17.468Z,26.48
2018-06-07T17:53:26.296Z,26.48
2018-06-07T17:54:35.134Z,26.28
2018-06-07T17:55:43.958Z,26.38
2018-06-07T17:56:52.787Z,26.38
2018-06-07T17:58:01.614Z,25.7
2018-06-07T17:59:10.438Z,25.89
2018-06-07T18:00:19.529Z,26.28
2018-06-07T18:01:28.643Z,26.76
2018-06-07T18:02:37.462Z,26.67
2018-06-07T18:03:46.308Z,26.57
2018-06-07T18:04:55.135Z,26.76
2018-06-07T18:06:03.968Z,27.25
2018-06-07T18:07:12.800Z,26.86
2018-06-07T18:08:21.625Z,26.86
2018-06-07T18:09:30.446Z,25.99
2018-06-07T18:10:39.268Z,26.48
2018-06-07T18:11:48.100Z,26.48
2018-06-07T18:12:56.979Z,26.38
2018-06-07T18:14:06.029Z,25.99
2018-06-07T18:15:14.851Z,25.99
2018-06-07T18:16:23.690Z,25.98
2018-06-07T18:17:32.784Z,25.89
2018-06-07T18:18:41.738Z,25.78
2018-06-07T18:19:50.901Z,25.6
2018-06-07T18:20:59.736Z,25.68
2018-06-07T18:22:08.561Z,25.49
2018-06-07T18:23:17.390Z,25.59
2018-06-07T18:24:26.241Z,25.49
2018-06-07T18:25:35.045Z,25.4
2018-06-07T18:26:43.868Z,25.3
2018-06-07T18:27:52.705Z,25.01
2018-06-07T18:29:01.536Z,24.82
2018-06-07T18:30:10.362Z,24.91
2018-06-07T18:31:19.218Z,24.82
2018-06-07T18:32:28.047Z,24.91
2018-06-07T18:33:36.881Z,25.2
2018-06-07T18:34:45.698Z,25.01
2018-06-07T18:35:54.525Z,25.4
2018-06-07T18:37:03.349Z,25.49
2018-06-07T18:38:12.186Z,25.68
2018-06-07T18:39:21.012Z,25.68
2018-06-07T18:40:30.363Z,26.17
2018-06-07T18:41:39.192Z,26.37
2018-06-07T18:42:48.022Z,26.56
2018-06-07T18:43:56.851Z,26.75
2018-06-07T18:45:05.947Z,26.95
2018-06-07T18:46:14.766Z,26.75
2018-06-07T18:47:23.595Z,26.85
2018-06-07T18:48:32.428Z,27.32
2018-06-07T18:49:41.259Z,26.93
2018-06-07T18:50:50.098Z,27.42
2018-06-07T18:51:59.178Z,27.61
2018-06-07T18:53:08.283Z,27.92
2018-06-07T18:54:17.371Z,28.09
2018-06-07T18:55:26.200Z,28.09
2018-06-07T18:56:35.029Z,28.29
2018-06-07T18:57:43.863Z,28.39
2018-06-07T18:58:52.945Z,28.49
2018-06-07T19:00:01.771Z,28.68
2018-06-07T19:01:10.861Z,28.77
2018-06-07T19:02:19.683Z,28.97
2018-06-07T19:03:28.513Z,29.16
2018-06-07T19:04:37.338Z,29.16
2018-06-07T19:05:46.167Z,29.06
2018-06-07T19:06:55.064Z,29.16
2018-06-07T19:08:03.822Z,29.46
2018-06-07T19:09:12.661Z,29.24
2018-06-07T19:10:21.495Z,28.96
2018-06-07T19:11:30.321Z,29.05
2018-06-07T19:12:39.151Z,28.96
2018-06-07T19:13:47.976Z,28.96
2018-06-07T19:14:56.817Z,29.15
2018-06-07T19:16:05.646Z,29.34
2018-06-07T19:17:14.464Z,29.24
2018-06-07T19:18:23.561Z,29.34
2018-06-07T19:19:32.672Z,29.24
2018-06-07T19:20:41.489Z,29.34
2018-06-07T19:21:50.312Z,29.05
2018-06-07T19:22:59.126Z,29.83
2018-06-07T19:24:07.949Z,29.83
2018-06-07T19:25:16.788Z,30.02
2018-06-07T19:26:25.609Z,29.92
2018-06-07T19:27:34.442Z,30.31
2018-06-07T19:28:43.264Z,30.39
2018-06-07T19:29:52.153Z,30.49
2018-06-07T19:31:00.924Z,30.68
2018-06-07T19:32:10.022Z,30.68
2018-06-07T19:33:19.111Z,30.39
2018-06-07T19:34:27.946Z,30.39
2018-06-07T19:35:36.767Z,30.39
2018-06-07T19:36:45.632Z,30.49
2018-06-07T19:37:54.713Z,30.39
2018-06-07T19:39:03.531Z,30.49
2018-06-07T19:40:12.363Z,30.39
2018-06-07T19:41:21.187Z,30.78
2018-06-07T19:42:30.017Z,30.78
2018-06-07T19:43:38.863Z,30.49
2018-06-07T19:44:47.683Z,30.47
2018-06-07T19:45:56.522Z,30.68
2018-06-07T19:47:05.610Z,30.38
2018-06-07T19:48:14.446Z,30.57
2018-06-07T19:49:23.265Z,30.47
2018-06-07T19:50:32.087Z,30.47
2018-06-07T19:51:40.966Z,30.47
2018-06-07T19:52:49.800Z,30.57
2018-06-07T19:53:58.615Z,30.47
2018-06-07T19:55:07.449Z,30.57
2018-06-07T19:56:16.278Z,30.76
2018-06-07T19:57:25.111Z,30.57
2018-06-07T19:58:33.938Z,30.57
2018-06-07T19:59:42.771Z,30.66
2018-06-07T20:00:51.865Z,30.86
2018-06-07T20:02:00.957Z,30.76
2018-06-07T20:03:09.784Z,30.76
2018-06-07T20:04:18.612Z,30.76
2018-06-07T20:05:27.720Z,30.86
2018-06-07T20:06:36.544Z,31.04
2018-06-07T20:07:45.376Z,31.13
2018-06-07T20:08:54.208Z,31.05
2018-06-07T20:10:03.042Z,31.33
2018-06-07T20:11:11.863Z,31.43
2018-06-07T20:12:20.684Z,31.33
2018-06-07T20:13:29.519Z,31.52
2018-06-07T20:14:38.351Z,31.43
2018-06-07T20:15:47.179Z,31.62
2018-06-07T20:16:56.003Z,31.71
2018-06-07T20:18:05.129Z,31.71
2018-06-07T20:19:14.225Z,31.71
2018-06-07T20:20:23.056Z,31.71
2018-06-07T20:21:31.870Z,31.81
2018-06-07T20:22:40.703Z,31.71
2018-06-07T20:23:49.522Z,31.81
2018-06-07T20:24:58.348Z,31.81
2018-06-07T20:26:07.175Z,31.81
2018-06-07T20:27:16.008Z,31.62
2018-06-07T20:28:24.822Z,31.91
2018-06-07T20:29:33.658Z,31.91
2018-06-07T20:30:42.484Z,31.62
2018-06-07T20:31:51.313Z,31.62
2018-06-07T20:33:00.133Z,31.71
2018-06-07T20:34:08.960Z,31.81
2018-06-07T20:35:17.788Z,31.81
2018-06-07T20:36:26.619Z,31.89
2018-06-07T20:37:35.444Z,31.8
2018-06-07T20:38:44.522Z,31.6
2018-06-07T20:39:53.345Z,31.99
2018-06-07T20:41:02.175Z,31.8
2018-06-07T20:42:11.010Z,31.8
2018-06-07T20:43:19.845Z,31.99
2018-06-07T20:44:28.713Z,31.89
2018-06-07T20:45:37.541Z,31.89
2018-06-07T20:46:46.385Z,31.99
2018-06-07T20:47:55.210Z,31.89
2018-06-07T20:49:04.034Z,31.99
2018-06-07T20:50:13.152Z,32.09
2018-06-07T20:51:22.279Z,31.89
2018-06-07T20:52:31.087Z,32.09
2018-06-07T20:53:39.916Z,31.89
2018-06-07T20:54:48.749Z,31.89
2018-06-07T20:55:57.564Z,32.18
2018-06-07T20:57:06.398Z,32.09
2018-06-07T20:58:15.229Z,32.09
2018-06-07T20:59:24.063Z,32.09
2018-06-07T21:00:32.927Z,32.09
2018-06-07T21:01:42.092Z,32.09
2018-06-07T21:02:50.920Z,32.18
2018-06-07T21:03:59.751Z,32.09
2018-06-07T21:05:08.840Z,32.09
2018-06-07T21:06:17.668Z,32.09
2018-06-07T21:07:26.498Z,32.09
2018-06-07T21:08:35.326Z,32.18
2018-06-07T21:09:44.142Z,32.09
2018-06-07T21:10:52.967Z,32.07
2018-06-07T21:12:02.085Z,32.07
2018-06-07T21:13:11.197Z,32.17
2018-06-07T21:14:20.090Z,32.07
2018-06-07T21:15:28.952Z,32.36
2018-06-07T21:16:37.783Z,32.26
2018-06-07T21:17:46.613Z,32.36
2018-06-07T21:18:55.576Z,32.36
2018-06-07T21:20:04.402Z,32.46
2018-06-07T21:21:13.545Z,32.36
2018-06-07T21:22:22.394Z,32.36
2018-06-07T21:23:31.306Z,32.26
2018-06-07T21:24:40.169Z,32.56
2018-06-07T21:25:48.999Z,32.46
2018-06-07T21:26:57.868Z,32.46
2018-06-07T21:28:06.696Z,32.56
2018-06-07T21:29:15.528Z,32.65
2018-06-07T21:30:24.350Z,32.75
2018-06-07T21:31:33.216Z,32.75
2018-06-07T21:32:42.090Z,32.75
2018-06-07T21:33:50.949Z,32.84
2018-06-07T21:34:59.793Z,32.94
2018-06-07T21:36:08.622Z,32.94
2018-06-07T21:37:17.761Z,32.94
2018-06-07T21:38:26.587Z,33.23
2018-06-07T21:39:35.416Z,33.14
2018-06-07T21:40:44.247Z,33.04
2018-06-07T21:41:53.174Z,33.14
2018-06-07T21:43:02.007Z,33.04
2018-06-07T21:44:10.837Z,33.23
2018-06-07T21:45:19.661Z,33.23
2018-06-07T21:46:28.510Z,33.23
2018-06-07T21:47:37.333Z,33.14
2018-06-07T21:48:46.260Z,33.33
2018-06-07T21:49:55.092Z,33.22
2018-06-07T21:51:03.911Z,33.31
2018-06-07T21:52:12.733Z,33.52
2018-06-07T21:53:21.896Z,33.31
2018-06-07T21:54:30.724Z,33.52
2018-06-07T21:55:39.903Z,33.8
2018-06-07T21:56:48.726Z,33.62
2018-06-07T21:57:57.568Z,33.5
2018-06-07T21:59:06.728Z,33.5
2018-06-07T22:00:15.594Z,33.6
2018-06-07T22:01:24.474Z,33.4
2018-06-07T22:02:33.303Z,33.89
2018-06-07T22:03:42.146Z,33.8
2018-06-07T22:04:51.286Z,33.89
2018-06-07T22:06:00.134Z,33.89
2018-06-07T22:07:08.958Z,33.8
2018-06-07T22:08:17.831Z,34.08
2018-06-07T22:09:26.678Z,33.8
2018-06-07T22:10:36.046Z,33.7
2018-06-07T22:11:44.872Z,33.7
2018-06-07T22:12:53.695Z,33.89
2018-06-07T22:14:02.511Z,33.98
2018-06-07T22:15:11.336Z,33.89
2018-06-07T22:16:20.161Z,33.89
2018-06-07T22:17:28.991Z,33.7
2018-06-07T22:18:37.806Z,33.8
2018-06-07T22:19:46.905Z,33.8
2018-06-07T22:20:55.728Z,33.87
2018-06-07T22:22:04.553Z,33.89
2018-06-07T22:23:13.370Z,33.7
2018-06-07T22:24:22.202Z,34.28
2018-06-07T22:25:31.169Z,33.98
2018-06-07T22:26:39.996Z,34.08
2018-06-07T22:27:48.825Z,34.08
2018-06-07T22:28:57.656Z,33.78
2018-06-07T22:30:06.498Z,34.45
2018-06-07T22:31:15.347Z,34.06
2018-06-07T22:32:24.216Z,34.16
2018-06-07T22:33:33.040Z,34.08
2018-06-07T22:34:41.865Z,34.08
2018-06-07T22:35:50.747Z,34.16
2018-06-07T22:36:59.574Z,34.55
2018-06-07T22:38:08.394Z,34.45
2018-06-07T22:39:17.233Z,34.45
2018-06-07T22:40:26.228Z,34.64
2018-06-07T22:41:35.157Z,34.74
2018-06-07T22:42:44.055Z,35.03
2018-06-07T22:43:52.911Z,34.84
2018-06-07T22:45:01.741Z,34.74
2018-06-07T22:46:10.643Z,34.64
2018-06-07T22:47:19.479Z,34.64
2018-06-07T22:48:28.305Z,35.22
2018-06-07T22:49:37.131Z,35.32
2018-06-07T22:50:45.950Z,35.13
2018-06-07T22:51:54.780Z,34.94
2018-06-07T22:53:03.600Z,34.94
2018-06-07T22:54:12.424Z,35.03
2018-06-07T22:55:21.249Z,35.13
2018-06-07T22:56:30.081Z,35.03
2018-06-07T22:57:38.897Z,35.22
2018-06-07T22:58:47.728Z,35.61
2018-06-07T22:59:56.808Z,35.52
2018-06-07T23:01:05.641Z,35.42
2018-06-07T23:02:14.473Z,35.22
2018-06-07T23:03:23.295Z,35.4
2018-06-07T23:04:32.406Z,35.4
2018-06-07T23:05:41.224Z,35.5
2018-06-07T23:06:50.050Z,35.69
2018-06-07T23:07:58.867Z,35.78
2018-06-07T23:09:07.693Z,35.88
2018-06-07T23:10:16.513Z,35.78
2018-06-07T23:11:25.611Z,35.98
2018-06-07T23:12:34.440Z,36.27
2018-06-07T23:13:43.271Z,36.46
2018-06-07T23:14:52.093Z,36.27
2018-06-07T23:16:00.929Z,36.27
2018-06-07T23:17:09.749Z,36.17
2018-06-07T23:18:18.580Z,36.17
2018-06-07T23:19:27.408Z,36.36
2018-06-07T23:20:36.495Z,36.36
2018-06-07T23:21:45.316Z,36.46
2018-06-07T23:22:54.145Z,36.46
2018-06-07T23:24:02.975Z,36.46
2018-06-07T23:25:11.796Z,36.55
2018-06-07T23:26:20.625Z,36.36
2018-06-07T23:27:29.446Z,36.65
2018-06-07T23:28:38.274Z,36.75
2018-06-07T23:29:47.102Z,36.55
2018-06-07T23:30:55.934Z,36.65
2018-06-07T23:32:04.755Z,36.75
2018-06-07T23:33:13.587Z,36.94
2018-06-07T23:34:22.406Z,36.94
2018-06-07T23:35:31.232Z,37.04
2018-06-07T23:36:40.061Z,37.02
2018-06-07T23:37:48.897Z,37.04
2018-06-07T23:38:57.985Z,36.93
2018-06-07T23:40:06.804Z,37.02
2018-06-07T23:41:15.627Z,37.21
2018-06-07T23:42:24.459Z,37.21
2018-06-07T23:43:33.279Z,37.31
2018-06-07T23:44:42.373Z,37.31
2018-06-07T23:45:51.189Z,37.6
2018-06-07T23:47:00.026Z,37.6
2018-06-07T23:48:08.843Z,37.6
2018-06-07T23:49:17.930Z,37.6
2018-06-07T23:50:26.748Z,37.21
2018-06-07T23:51:35.583Z,37.5
2018-06-07T23:52:44.402Z,37.7
2018-06-07T23:53:53.239Z,37.7
2018-06-07T23:55:02.057Z,37.79
2018-06-07T23:56:10.886Z,37.79
2018-06-07T23:57:19.975Z,37.7
2018-06-07T23:58:28.803Z,37.79
2018-06-07T23:59:37.638Z,38.18
